sensor_id;sensor_type;location;lat;lon;timestamp;temperature;humidity
20398;DHT22;10358;49.590;11.030;2024-03-07T00:00:14;3.50;99.90
20398;DHT22;10358;49.590;11.030;2024-03-07T00:02:44;3.50;99.90
20398;DHT22;10358;49.590;11.030;2024-03-07T00:05:11;3.50;99.90
20398;DHT22;10358;49.590;11.030;2024-03-07T00:07:38;3.40;99.90
20398;DHT22;10358;49.590;11.030;2024-03-07T00:10:04;3.40;99.90
20398;DHT22;10358;49.590;11.030;2024-03-07T00:12:33;3.40;99.90
20398;DHT22;10358;49.590;11.030;2024-03-07T00:14:58;3.40;99.90
20398;DHT22;10358;49.590;11.030;2024-03-07T00:17:24;3.30;99.90
20398;DHT22;10358;49.590;11.030;2024-03-07T00:19:49;3.30;99.90
20398;DHT22;10358;49.590;11.030;2024-03-07T00:22:15;3.30;99.90
20398;DHT22;10358;49.590;11.030;2024-03-07T00:24:40;3.30;99.90
20398;DHT22;10358;49.590;11.030;2024-03-07T00:27:08;3.30;99.90
20398;DHT22;10358;49.590;11.030;2024-03-07T00:29:33;3.30;99.90
20398;DHT22;10358;49.590;11.030;2024-03-07T00:32:03;3.30;99.90
20398;DHT22;10358;49.590;11.030;2024-03-07T00:34:29;3.30;99.90
20398;DHT22;10358;49.590;11.030;2024-03-07T00:36:54;3.30;99.90
20398;DHT22;10358;49.590;11.030;2024-03-07T00:39:21;3.30;99.90
20398;DHT22;10358;49.590;11.030;2024-03-07T00:41:47;3.30;99.90
20398;DHT22;10358;49.590;11.030;2024-03-07T00:44:12;3.20;99.90
20398;DHT22;10358;49.590;11.030;2024-03-07T00:46:38;3.20;99.90
20398;DHT22;10358;49.590;11.030;2024-03-07T00:49:04;3.20;99.90
20398;DHT22;10358;49.590;11.030;2024-03-07T00:51:30;3.20;99.90
20398;DHT22;10358;49.590;11.030;2024-03-07T00:53:56;3.20;99.90
20398;DHT22;10358;49.590;11.030;2024-03-07T00:56:22;3.20;99.90
20398;DHT22;10358;49.590;11.030;2024-03-07T00:58:51;3.20;99.90
20398;DHT22;10358;49.590;11.030;2024-03-07T01:01:17;3.10;99.90
20398;DHT22;10358;49.590;11.030;2024-03-07T01:03:45;3.00;99.90
20398;DHT22;10358;49.590;11.030;2024-03-07T01:06:11;3.00;99.90
20398;DHT22;10358;49.590;11.030;2024-03-07T01:08:37;3.00;99.90
20398;DHT22;10358;49.590;11.030;2024-03-07T01:11:04;3.00;99.90
20398;DHT22;10358;49.590;11.030;2024-03-07T01:13:38;2.90;99.90
20398;DHT22;10358;49.590;11.030;2024-03-07T01:16:04;3.00;99.90
20398;DHT22;10358;49.590;11.030;2024-03-07T01:18:31;3.00;99.90
20398;DHT22;10358;49.590;11.030;2024-03-07T01:20:59;3.10;99.90
20398;DHT22;10358;49.590;11.030;2024-03-07T01:23:25;3.10;99.90
20398;DHT22;10358;49.590;11.030;2024-03-07T01:25:50;3.20;99.90
20398;DHT22;10358;49.590;11.030;2024-03-07T01:28:16;3.20;99.90
20398;DHT22;10358;49.590;11.030;2024-03-07T01:30:42;3.20;99.90
20398;DHT22;10358;49.590;11.030;2024-03-07T01:33:08;3.20;99.90
20398;DHT22;10358;49.590;11.030;2024-03-07T01:35:33;3.30;99.90
20398;DHT22;10358;49.590;11.030;2024-03-07T01:37:59;3.30;99.90
20398;DHT22;10358;49.590;11.030;2024-03-07T01:40:25;3.30;99.90
20398;DHT22;10358;49.590;11.030;2024-03-07T01:42:50;3.30;99.90
20398;DHT22;10358;49.590;11.030;2024-03-07T01:45:16;3.30;99.90
20398;DHT22;10358;49.590;11.030;2024-03-07T01:47:46;3.40;99.90
20398;DHT22;10358;49.590;11.030;2024-03-07T01:50:12;3.50;99.90
20398;DHT22;10358;49.590;11.030;2024-03-07T01:52:40;3.50;99.90
20398;DHT22;10358;49.590;11.030;2024-03-07T01:55:07;3.60;99.90
20398;DHT22;10358;49.590;11.030;2024-03-07T01:57:33;3.70;99.90
20398;DHT22;10358;49.590;11.030;2024-03-07T02:00:00;3.70;99.90
20398;DHT22;10358;49.590;11.030;2024-03-07T02:02:29;3.80;99.90
20398;DHT22;10358;49.590;11.030;2024-03-07T02:04:55;3.80;99.90
20398;DHT22;10358;49.590;11.030;2024-03-07T02:07:22;3.80;99.90
20398;DHT22;10358;49.590;11.030;2024-03-07T02:09:49;3.80;99.90
20398;DHT22;10358;49.590;11.030;2024-03-07T02:12:15;3.80;99.90
20398;DHT22;10358;49.590;11.030;2024-03-07T02:14:40;3.80;99.90
20398;DHT22;10358;49.590;11.030;2024-03-07T02:17:09;3.90;99.90
20398;DHT22;10358;49.590;11.030;2024-03-07T02:19:35;3.90;99.90
20398;DHT22;10358;49.590;11.030;2024-03-07T02:22:00;3.80;99.90
20398;DHT22;10358;49.590;11.030;2024-03-07T02:24:26;3.80;99.90
20398;DHT22;10358;49.590;11.030;2024-03-07T02:26:51;3.80;99.90
20398;DHT22;10358;49.590;11.030;2024-03-07T02:29:17;3.70;99.90
20398;DHT22;10358;49.590;11.030;2024-03-07T02:31:44;3.70;99.90
20398;DHT22;10358;49.590;11.030;2024-03-07T02:34:10;3.70;99.90
20398;DHT22;10358;49.590;11.030;2024-03-07T02:36:36;3.70;99.90
20398;DHT22;10358;49.590;11.030;2024-03-07T02:39:02;3.60;99.90
20398;DHT22;10358;49.590;11.030;2024-03-07T02:41:28;3.60;99.90
20398;DHT22;10358;49.590;11.030;2024-03-07T02:43:53;3.60;99.90
20398;DHT22;10358;49.590;11.030;2024-03-07T02:46:19;3.60;99.90
20398;DHT22;10358;49.590;11.030;2024-03-07T02:48:45;3.60;99.90
20398;DHT22;10358;49.590;11.030;2024-03-07T02:51:10;3.60;99.90
20398;DHT22;10358;49.590;11.030;2024-03-07T02:53:37;3.60;99.90
20398;DHT22;10358;49.590;11.030;2024-03-07T02:56:04;3.60;99.90
20398;DHT22;10358;49.590;11.030;2024-03-07T02:58:33;3.60;99.90
20398;DHT22;10358;49.590;11.030;2024-03-07T03:01:00;3.60;99.90
20398;DHT22;10358;49.590;11.030;2024-03-07T03:03:29;3.60;99.90
20398;DHT22;10358;49.590;11.030;2024-03-07T03:05:59;3.50;99.90
20398;DHT22;10358;49.590;11.030;2024-03-07T03:08:26;3.60;99.90
20398;DHT22;10358;49.590;11.030;2024-03-07T03:10:56;3.50;99.90
20398;DHT22;10358;49.590;11.030;2024-03-07T03:13:23;3.50;99.90
20398;DHT22;10358;49.590;11.030;2024-03-07T03:15:48;3.50;99.90
20398;DHT22;10358;49.590;11.030;2024-03-07T03:18:14;3.50;99.90
20398;DHT22;10358;49.590;11.030;2024-03-07T03:20:41;3.50;99.90
20398;DHT22;10358;49.590;11.030;2024-03-07T03:23:09;3.50;99.90
20398;DHT22;10358;49.590;11.030;2024-03-07T03:25:39;3.50;99.90
20398;DHT22;10358;49.590;11.030;2024-03-07T03:28:05;3.50;99.90
20398;DHT22;10358;49.590;11.030;2024-03-07T03:30:33;3.40;99.90
20398;DHT22;10358;49.590;11.030;2024-03-07T03:32:58;3.40;99.90
20398;DHT22;10358;49.590;11.030;2024-03-07T03:35:25;3.40;99.90
20398;DHT22;10358;49.590;11.030;2024-03-07T03:37:51;3.30;99.90
20398;DHT22;10358;49.590;11.030;2024-03-07T03:40:16;3.20;99.90
20398;DHT22;10358;49.590;11.030;2024-03-07T03:42:42;3.20;99.90
20398;DHT22;10358;49.590;11.030;2024-03-07T03:45:09;3.20;99.90
20398;DHT22;10358;49.590;11.030;2024-03-07T03:47:40;3.00;99.90
20398;DHT22;10358;49.590;11.030;2024-03-07T03:50:07;2.90;99.90
20398;DHT22;10358;49.590;11.030;2024-03-07T03:52:35;2.90;99.90
20398;DHT22;10358;49.590;11.030;2024-03-07T03:55:01;2.80;99.90
20398;DHT22;10358;49.590;11.030;2024-03-07T03:57:28;2.80;99.90
20398;DHT22;10358;49.590;11.030;2024-03-07T03:59:55;2.70;99.90
20398;DHT22;10358;49.590;11.030;2024-03-07T04:02:21;2.70;99.90
20398;DHT22;10358;49.590;11.030;2024-03-07T04:04:48;2.60;99.90
20398;DHT22;10358;49.590;11.030;2024-03-07T04:07:14;2.50;99.90
20398;DHT22;10358;49.590;11.030;2024-03-07T04:09:44;2.50;99.90
20398;DHT22;10358;49.590;11.030;2024-03-07T04:12:10;2.40;99.90
20398;DHT22;10358;49.590;11.030;2024-03-07T04:14:43;2.40;99.90
20398;DHT22;10358;49.590;11.030;2024-03-07T04:17:10;2.30;99.90
20398;DHT22;10358;49.590;11.030;2024-03-07T04:19:42;2.30;99.90
20398;DHT22;10358;49.590;11.030;2024-03-07T04:22:08;2.20;99.90
20398;DHT22;10358;49.590;11.030;2024-03-07T04:24:37;2.20;99.90
20398;DHT22;10358;49.590;11.030;2024-03-07T04:27:03;2.20;99.90
20398;DHT22;10358;49.590;11.030;2024-03-07T04:29:35;2.10;99.90
20398;DHT22;10358;49.590;11.030;2024-03-07T04:32:02;2.10;99.90
20398;DHT22;10358;49.590;11.030;2024-03-07T04:34:29;2.10;99.90
20398;DHT22;10358;49.590;11.030;2024-03-07T04:36:56;2.10;99.90
20398;DHT22;10358;49.590;11.030;2024-03-07T04:39:24;2.00;99.90
20398;DHT22;10358;49.590;11.030;2024-03-07T04:44:26;2.00;99.90
20398;DHT22;10358;49.590;11.030;2024-03-07T04:46:51;2.00;99.90
20398;DHT22;10358;49.590;11.030;2024-03-07T04:49:22;2.00;99.90
20398;DHT22;10358;49.590;11.030;2024-03-07T04:51:53;1.90;99.90
20398;DHT22;10358;49.590;11.030;2024-03-07T04:54:19;1.90;99.90
20398;DHT22;10358;49.590;11.030;2024-03-07T04:56:46;1.90;99.90
20398;DHT22;10358;49.590;11.030;2024-03-07T04:59:13;1.90;99.90
20398;DHT22;10358;49.590;11.030;2024-03-07T05:01:39;1.90;99.90
20398;DHT22;10358;49.590;11.030;2024-03-07T05:04:06;1.90;99.90
20398;DHT22;10358;49.590;11.030;2024-03-07T05:06:32;1.90;99.90
20398;DHT22;10358;49.590;11.030;2024-03-07T05:09:04;1.90;99.90
20398;DHT22;10358;49.590;11.030;2024-03-07T05:11:30;2.00;99.90
20398;DHT22;10358;49.590;11.030;2024-03-07T05:13:57;2.10;99.90
20398;DHT22;10358;49.590;11.030;2024-03-07T05:16:26;2.10;99.90
20398;DHT22;10358;49.590;11.030;2024-03-07T05:18:54;2.20;99.90
20398;DHT22;10358;49.590;11.030;2024-03-07T05:21:20;2.20;99.90
20398;DHT22;10358;49.590;11.030;2024-03-07T05:23:58;2.20;99.90
20398;DHT22;10358;49.590;11.030;2024-03-07T05:26:24;2.30;99.90
20398;DHT22;10358;49.590;11.030;2024-03-07T05:28:50;2.30;99.90
20398;DHT22;10358;49.590;11.030;2024-03-07T05:31:17;2.40;99.90
20398;DHT22;10358;49.590;11.030;2024-03-07T05:33:44;2.40;99.90
20398;DHT22;10358;49.590;11.030;2024-03-07T05:36:09;2.40;99.90
20398;DHT22;10358;49.590;11.030;2024-03-07T05:38:47;2.40;99.90
20398;DHT22;10358;49.590;11.030;2024-03-07T05:41:15;2.40;99.90
20398;DHT22;10358;49.590;11.030;2024-03-07T05:43:41;2.40;99.90
20398;DHT22;10358;49.590;11.030;2024-03-07T05:46:06;2.40;99.90
20398;DHT22;10358;49.590;11.030;2024-03-07T05:48:36;2.30;99.90
20398;DHT22;10358;49.590;11.030;2024-03-07T05:51:02;2.30;99.90
20398;DHT22;10358;49.590;11.030;2024-03-07T05:53:28;2.20;99.90
20398;DHT22;10358;49.590;11.030;2024-03-07T05:55:55;2.10;99.90
20398;DHT22;10358;49.590;11.030;2024-03-07T05:58:21;2.10;99.90
20398;DHT22;10358;49.590;11.030;2024-03-07T06:00:47;2.00;99.90
20398;DHT22;10358;49.590;11.030;2024-03-07T06:03:16;2.00;99.90
20398;DHT22;10358;49.590;11.030;2024-03-07T06:05:43;2.00;99.90
20398;DHT22;10358;49.590;11.030;2024-03-07T06:08:09;2.00;99.90
20398;DHT22;10358;49.590;11.030;2024-03-07T06:10:35;2.10;99.90
20398;DHT22;10358;49.590;11.030;2024-03-07T06:13:00;2.10;99.90
20398;DHT22;10358;49.590;11.030;2024-03-07T06:15:26;2.20;99.90
20398;DHT22;10358;49.590;11.030;2024-03-07T06:17:53;2.20;99.90
20398;DHT22;10358;49.590;11.030;2024-03-07T06:20:19;2.30;99.90
20398;DHT22;10358;49.590;11.030;2024-03-07T06:22:51;2.40;99.90
20398;DHT22;10358;49.590;11.030;2024-03-07T06:25:20;2.50;99.90
20398;DHT22;10358;49.590;11.030;2024-03-07T06:27:59;2.50;99.90
20398;DHT22;10358;49.590;11.030;2024-03-07T06:30:24;2.60;99.90
20398;DHT22;10358;49.590;11.030;2024-03-07T06:32:51;2.60;99.90
20398;DHT22;10358;49.590;11.030;2024-03-07T06:35:17;2.70;99.90
20398;DHT22;10358;49.590;11.030;2024-03-07T06:37:45;2.70;99.90
20398;DHT22;10358;49.590;11.030;2024-03-07T06:40:10;2.80;99.90
20398;DHT22;10358;49.590;11.030;2024-03-07T06:42:36;2.90;99.90
20398;DHT22;10358;49.590;11.030;2024-03-07T06:45:03;2.90;99.90
20398;DHT22;10358;49.590;11.030;2024-03-07T06:47:29;3.00;99.90
20398;DHT22;10358;49.590;11.030;2024-03-07T06:49:54;3.10;99.90
20398;DHT22;10358;49.590;11.030;2024-03-07T06:52:21;3.10;99.90
20398;DHT22;10358;49.590;11.030;2024-03-07T06:54:47;3.20;99.90
20398;DHT22;10358;49.590;11.030;2024-03-07T06:57:12;3.30;99.90
20398;DHT22;10358;49.590;11.030;2024-03-07T06:59:38;3.30;99.90
20398;DHT22;10358;49.590;11.030;2024-03-07T07:02:04;3.40;99.90
20398;DHT22;10358;49.590;11.030;2024-03-07T07:04:29;3.40;99.90
20398;DHT22;10358;49.590;11.030;2024-03-07T07:07:07;3.50;99.90
20398;DHT22;10358;49.590;11.030;2024-03-07T07:09:33;3.50;99.90
20398;DHT22;10358;49.590;11.030;2024-03-07T07:12:00;3.60;99.90
20398;DHT22;10358;49.590;11.030;2024-03-07T07:14:28;3.60;99.90
20398;DHT22;10358;49.590;11.030;2024-03-07T07:16:54;3.70;99.90
20398;DHT22;10358;49.590;11.030;2024-03-07T07:19:21;3.70;99.90
20398;DHT22;10358;49.590;11.030;2024-03-07T07:21:48;3.60;99.90
20398;DHT22;10358;49.590;11.030;2024-03-07T07:24:22;3.50;99.90
20398;DHT22;10358;49.590;11.030;2024-03-07T07:26:49;3.60;99.90
20398;DHT22;10358;49.590;11.030;2024-03-07T07:29:16;3.70;99.90
20398;DHT22;10358;49.590;11.030;2024-03-07T07:31:44;3.80;99.90
20398;DHT22;10358;49.590;11.030;2024-03-07T07:34:12;3.90;99.90
20398;DHT22;10358;49.590;11.030;2024-03-07T07:36:38;4.00;99.90
20398;DHT22;10358;49.590;11.030;2024-03-07T07:39:03;4.10;99.90
20398;DHT22;10358;49.590;11.030;2024-03-07T07:41:29;4.10;99.90
20398;DHT22;10358;49.590;11.030;2024-03-07T07:43:57;4.10;99.90
20398;DHT22;10358;49.590;11.030;2024-03-07T07:46:22;4.20;99.90
20398;DHT22;10358;49.590;11.030;2024-03-07T07:48:48;4.30;99.90
20398;DHT22;10358;49.590;11.030;2024-03-07T07:51:14;4.40;99.90
20398;DHT22;10358;49.590;11.030;2024-03-07T07:53:39;4.40;99.90
20398;DHT22;10358;49.590;11.030;2024-03-07T07:56:06;4.40;99.90
20398;DHT22;10358;49.590;11.030;2024-03-07T07:58:31;4.40;99.90
20398;DHT22;10358;49.590;11.030;2024-03-07T08:00:57;4.40;99.90
20398;DHT22;10358;49.590;11.030;2024-03-07T08:03:22;4.40;99.90
20398;DHT22;10358;49.590;11.030;2024-03-07T08:05:48;4.40;99.90
20398;DHT22;10358;49.590;11.030;2024-03-07T08:08:14;4.60;99.90
20398;DHT22;10358;49.590;11.030;2024-03-07T08:10:42;4.70;99.90
20398;DHT22;10358;49.590;11.030;2024-03-07T08:13:08;4.80;99.90
20398;DHT22;10358;49.590;11.030;2024-03-07T08:15:35;4.90;99.90
20398;DHT22;10358;49.590;11.030;2024-03-07T08:18:01;4.90;99.90
20398;DHT22;10358;49.590;11.030;2024-03-07T08:20:27;4.80;99.90
20398;DHT22;10358;49.590;11.030;2024-03-07T08:22:54;4.80;99.90
20398;DHT22;10358;49.590;11.030;2024-03-07T08:25:22;4.90;99.90
20398;DHT22;10358;49.590;11.030;2024-03-07T08:27:49;4.80;99.90
20398;DHT22;10358;49.590;11.030;2024-03-07T08:30:15;4.90;99.90
20398;DHT22;10358;49.590;11.030;2024-03-07T08:32:43;4.90;99.90
20398;DHT22;10358;49.590;11.030;2024-03-07T08:35:09;4.90;99.90
20398;DHT22;10358;49.590;11.030;2024-03-07T08:37:36;4.90;99.90
20398;DHT22;10358;49.590;11.030;2024-03-07T08:40:02;4.90;99.90
20398;DHT22;10358;49.590;11.030;2024-03-07T08:42:30;5.00;99.90
20398;DHT22;10358;49.590;11.030;2024-03-07T08:44:59;5.10;99.90
20398;DHT22;10358;49.590;11.030;2024-03-07T08:47:25;5.10;99.90
20398;DHT22;10358;49.590;11.030;2024-03-07T08:49:51;5.00;99.90
20398;DHT22;10358;49.590;11.030;2024-03-07T08:52:16;5.00;99.90
20398;DHT22;10358;49.590;11.030;2024-03-07T08:54:42;5.20;99.90
20398;DHT22;10358;49.590;11.030;2024-03-07T08:57:09;5.20;99.90
20398;DHT22;10358;49.590;11.030;2024-03-07T08:59:34;5.30;99.90
20398;DHT22;10358;49.590;11.030;2024-03-07T09:02:00;5.30;99.90
20398;DHT22;10358;49.590;11.030;2024-03-07T09:04:27;5.30;99.90
20398;DHT22;10358;49.590;11.030;2024-03-07T09:06:54;5.30;99.90
20398;DHT22;10358;49.590;11.030;2024-03-07T09:09:20;5.50;99.90
20398;DHT22;10358;49.590;11.030;2024-03-07T09:11:45;5.60;99.90
20398;DHT22;10358;49.590;11.030;2024-03-07T09:14:11;5.70;99.90
20398;DHT22;10358;49.590;11.030;2024-03-07T09:16:37;6.00;99.90
20398;DHT22;10358;49.590;11.030;2024-03-07T09:19:03;6.30;99.90
20398;DHT22;10358;49.590;11.030;2024-03-07T09:21:29;6.70;99.90
20398;DHT22;10358;49.590;11.030;2024-03-07T09:23:55;6.80;99.90
20398;DHT22;10358;49.590;11.030;2024-03-07T09:26:20;7.10;99.90
20398;DHT22;10358;49.590;11.030;2024-03-07T09:28:47;7.30;99.90
20398;DHT22;10358;49.590;11.030;2024-03-07T09:31:15;7.30;99.90
20398;DHT22;10358;49.590;11.030;2024-03-07T09:33:41;7.10;99.90
20398;DHT22;10358;49.590;11.030;2024-03-07T09:36:07;7.00;99.90
20398;DHT22;10358;49.590;11.030;2024-03-07T09:38:33;7.00;99.90
20398;DHT22;10358;49.590;11.030;2024-03-07T09:40:59;7.20;99.90
20398;DHT22;10358;49.590;11.030;2024-03-07T09:43:27;7.40;99.90
20398;DHT22;10358;49.590;11.030;2024-03-07T09:45:54;7.60;99.90
20398;DHT22;10358;49.590;11.030;2024-03-07T09:48:21;7.70;99.90
20398;DHT22;10358;49.590;11.030;2024-03-07T09:50:52;7.70;99.90
20398;DHT22;10358;49.590;11.030;2024-03-07T09:53:21;7.80;99.90
20398;DHT22;10358;49.590;11.030;2024-03-07T09:55:46;7.80;99.90
20398;DHT22;10358;49.590;11.030;2024-03-07T09:58:14;7.90;99.90
20398;DHT22;10358;49.590;11.030;2024-03-07T10:00:41;7.90;99.90
20398;DHT22;10358;49.590;11.030;2024-03-07T10:03:08;7.80;99.90
20398;DHT22;10358;49.590;11.030;2024-03-07T10:05:35;7.90;99.90
20398;DHT22;10358;49.590;11.030;2024-03-07T10:08:03;8.10;99.90
20398;DHT22;10358;49.590;11.030;2024-03-07T10:10:28;8.30;99.90
20398;DHT22;10358;49.590;11.030;2024-03-07T10:12:55;8.50;99.90
20398;DHT22;10358;49.590;11.030;2024-03-07T10:15:33;8.60;99.90
20398;DHT22;10358;49.590;11.030;2024-03-07T10:18:00;8.70;99.90
20398;DHT22;10358;49.590;11.030;2024-03-07T10:20:26;8.80;99.90
20398;DHT22;10358;49.590;11.030;2024-03-07T10:22:53;8.80;99.90
20398;DHT22;10358;49.590;11.030;2024-03-07T10:25:20;8.80;99.90
20398;DHT22;10358;49.590;11.030;2024-03-07T10:27:47;9.00;99.90
20398;DHT22;10358;49.590;11.030;2024-03-07T10:30:16;9.10;99.90
20398;DHT22;10358;49.590;11.030;2024-03-07T10:32:46;9.20;99.90
20398;DHT22;10358;49.590;11.030;2024-03-07T10:35:12;9.30;99.90
20398;DHT22;10358;49.590;11.030;2024-03-07T10:37:40;9.30;99.90
20398;DHT22;10358;49.590;11.030;2024-03-07T10:40:09;9.20;99.90
20398;DHT22;10358;49.590;11.030;2024-03-07T10:42:46;9.30;99.90
20398;DHT22;10358;49.590;11.030;2024-03-07T10:45:18;9.30;99.90
20398;DHT22;10358;49.590;11.030;2024-03-07T10:47:53;9.20;99.90
20398;DHT22;10358;49.590;11.030;2024-03-07T10:53:40;8.90;99.90
20398;DHT22;10358;49.590;11.030;2024-03-07T11:01:33;8.90;99.90
20398;DHT22;10358;49.590;11.030;2024-03-07T11:04:00;8.90;99.90
20398;DHT22;10358;49.590;11.030;2024-03-07T11:06:31;9.00;99.90
20398;DHT22;10358;49.590;11.030;2024-03-07T11:09:01;9.00;99.90
20398;DHT22;10358;49.590;11.030;2024-03-07T11:11:44;9.00;99.90
20398;DHT22;10358;49.590;11.030;2024-03-07T11:14:11;8.90;99.90
20398;DHT22;10358;49.590;11.030;2024-03-07T11:16:39;8.90;99.90
20398;DHT22;10358;49.590;11.030;2024-03-07T11:21:48;8.90;99.90
20398;DHT22;10358;49.590;11.030;2024-03-07T11:24:24;8.90;99.90
20398;DHT22;10358;49.590;11.030;2024-03-07T11:27:02;8.90;99.90
20398;DHT22;10358;49.590;11.030;2024-03-07T11:29:49;9.10;99.90
20398;DHT22;10358;49.590;11.030;2024-03-07T11:32:35;9.20;99.90
20398;DHT22;10358;49.590;11.030;2024-03-07T11:35:04;9.30;99.90
20398;DHT22;10358;49.590;11.030;2024-03-07T11:37:47;9.30;99.90
20398;DHT22;10358;49.590;11.030;2024-03-07T11:42:48;9.40;99.90
20398;DHT22;10358;49.590;11.030;2024-03-07T11:45:15;9.30;99.90
20398;DHT22;10358;49.590;11.030;2024-03-07T11:47:58;9.30;99.90
20398;DHT22;10358;49.590;11.030;2024-03-07T11:50:43;9.40;99.90
20398;DHT22;10358;49.590;11.030;2024-03-07T11:53:09;9.40;99.90
20398;DHT22;10358;49.590;11.030;2024-03-07T11:55:40;9.30;99.90
20398;DHT22;10358;49.590;11.030;2024-03-07T11:58:21;9.50;99.90
20398;DHT22;10358;49.590;11.030;2024-03-07T12:00:47;9.60;99.90
20398;DHT22;10358;49.590;11.030;2024-03-07T12:03:15;9.80;99.90
20398;DHT22;10358;49.590;11.030;2024-03-07T12:05:47;9.80;99.90
20398;DHT22;10358;49.590;11.030;2024-03-07T12:08:12;9.70;99.90
20398;DHT22;10358;49.590;11.030;2024-03-07T12:10:39;9.60;99.90
20398;DHT22;10358;49.590;11.030;2024-03-07T12:13:13;9.60;99.90
20398;DHT22;10358;49.590;11.030;2024-03-07T12:15:43;9.50;99.90
20398;DHT22;10358;49.590;11.030;2024-03-07T12:18:09;9.50;99.90
20398;DHT22;10358;49.590;11.030;2024-03-07T12:20:37;9.50;99.90
20398;DHT22;10358;49.590;11.030;2024-03-07T12:23:04;9.60;99.90
20398;DHT22;10358;49.590;11.030;2024-03-07T12:25:37;9.60;99.90
20398;DHT22;10358;49.590;11.030;2024-03-07T12:28:08;9.50;99.90
20398;DHT22;10358;49.590;11.030;2024-03-07T12:30:48;9.50;99.90
20398;DHT22;10358;49.590;11.030;2024-03-07T12:33:15;9.50;99.90
20398;DHT22;10358;49.590;11.030;2024-03-07T12:35:43;9.40;99.90
20398;DHT22;10358;49.590;11.030;2024-03-07T12:38:10;9.30;99.90
20398;DHT22;10358;49.590;11.030;2024-03-07T12:40:37;9.10;99.90
20398;DHT22;10358;49.590;11.030;2024-03-07T12:43:21;9.00;99.70
20398;DHT22;10358;49.590;11.030;2024-03-07T12:45:52;9.00;99.40
20398;DHT22;10358;49.590;11.030;2024-03-07T12:48:19;9.00;99.90
20398;DHT22;10358;49.590;11.030;2024-03-07T12:50:47;9.00;99.90
20398;DHT22;10358;49.590;11.030;2024-03-07T12:53:19;9.00;99.80
20398;DHT22;10358;49.590;11.030;2024-03-07T12:55:44;8.90;99.60
20398;DHT22;10358;49.590;11.030;2024-03-07T12:58:10;8.90;99.80
20398;DHT22;10358;49.590;11.030;2024-03-07T13:00:39;8.90;99.20
20398;DHT22;10358;49.590;11.030;2024-03-07T13:03:06;8.90;99.40
20398;DHT22;10358;49.590;11.030;2024-03-07T13:05:32;8.90;99.10
20398;DHT22;10358;49.590;11.030;2024-03-07T13:07:58;8.80;99.30
20398;DHT22;10358;49.590;11.030;2024-03-07T13:10:23;8.80;98.80
20398;DHT22;10358;49.590;11.030;2024-03-07T13:12:50;8.80;98.70
20398;DHT22;10358;49.590;11.030;2024-03-07T13:15:16;8.70;98.30
20398;DHT22;10358;49.590;11.030;2024-03-07T13:17:41;8.70;98.30
20398;DHT22;10358;49.590;11.030;2024-03-07T13:20:11;8.60;98.60
20398;DHT22;10358;49.590;11.030;2024-03-07T13:22:39;8.70;98.80
20398;DHT22;10358;49.590;11.030;2024-03-07T13:25:11;8.70;98.50
20398;DHT22;10358;49.590;11.030;2024-03-07T13:28:03;8.70;98.00
20398;DHT22;10358;49.590;11.030;2024-03-07T13:30:28;8.60;98.30
20398;DHT22;10358;49.590;11.030;2024-03-07T13:32:59;8.70;98.90
20398;DHT22;10358;49.590;11.030;2024-03-07T13:35:25;8.80;99.00
20398;DHT22;10358;49.590;11.030;2024-03-07T13:37:52;8.90;98.60
20398;DHT22;10358;49.590;11.030;2024-03-07T13:40:26;8.90;98.40
20398;DHT22;10358;49.590;11.030;2024-03-07T13:42:59;8.90;98.30
20398;DHT22;10358;49.590;11.030;2024-03-07T13:45:28;8.90;98.30
20398;DHT22;10358;49.590;11.030;2024-03-07T13:47:55;8.90;97.30
20398;DHT22;10358;49.590;11.030;2024-03-07T13:50:26;8.70;97.30
20398;DHT22;10358;49.590;11.030;2024-03-07T13:52:55;8.60;97.40
20398;DHT22;10358;49.590;11.030;2024-03-07T13:56:23;8.60;97.80
20398;DHT22;10358;49.590;11.030;2024-03-07T14:10:49;8.70;98.80
20398;DHT22;10358;49.590;11.030;2024-03-07T14:17:19;8.80;98.80
20398;DHT22;10358;49.590;11.030;2024-03-07T14:22:52;8.70;98.00
20398;DHT22;10358;49.590;11.030;2024-03-07T14:31:13;8.60;98.30
20398;DHT22;10358;49.590;11.030;2024-03-07T14:34:08;8.60;98.70
20398;DHT22;10358;49.590;11.030;2024-03-07T14:36:46;8.70;98.80
20398;DHT22;10358;49.590;11.030;2024-03-07T14:39:14;8.70;98.70
20398;DHT22;10358;49.590;11.030;2024-03-07T14:41:58;8.70;98.80
20398;DHT22;10358;49.590;11.030;2024-03-07T14:44:24;8.70;98.90
20398;DHT22;10358;49.590;11.030;2024-03-07T14:46:55;8.60;98.90
20398;DHT22;10358;49.590;11.030;2024-03-07T14:49:22;8.60;99.20
20398;DHT22;10358;49.590;11.030;2024-03-07T14:51:49;8.70;99.10
20398;DHT22;10358;49.590;11.030;2024-03-07T14:54:16;8.60;98.80
20398;DHT22;10358;49.590;11.030;2024-03-07T14:56:41;8.50;99.10
20398;DHT22;10358;49.590;11.030;2024-03-07T14:59:07;8.40;98.40
20398;DHT22;10358;49.590;11.030;2024-03-07T15:01:32;8.40;98.60
20398;DHT22;10358;49.590;11.030;2024-03-07T15:04:02;8.40;99.00
20398;DHT22;10358;49.590;11.030;2024-03-07T15:06:29;8.40;99.30
20398;DHT22;10358;49.590;11.030;2024-03-07T15:08:57;8.40;99.60
20398;DHT22;10358;49.590;11.030;2024-03-07T15:11:28;8.40;99.10
20398;DHT22;10358;49.590;11.030;2024-03-07T15:13:54;8.40;98.80
20398;DHT22;10358;49.590;11.030;2024-03-07T15:16:20;8.40;98.30
20398;DHT22;10358;49.590;11.030;2024-03-07T15:18:49;8.40;98.60
20398;DHT22;10358;49.590;11.030;2024-03-07T15:21:15;8.40;98.40
20398;DHT22;10358;49.590;11.030;2024-03-07T15:23:43;8.30;98.00
20398;DHT22;10358;49.590;11.030;2024-03-07T15:26:10;8.30;98.30
20398;DHT22;10358;49.590;11.030;2024-03-07T15:28:36;8.20;98.00
20398;DHT22;10358;49.590;11.030;2024-03-07T15:31:02;8.20;97.80
20398;DHT22;10358;49.590;11.030;2024-03-07T15:33:34;8.10;97.90
20398;DHT22;10358;49.590;11.030;2024-03-07T15:36:00;8.10;98.30
20398;DHT22;10358;49.590;11.030;2024-03-07T15:38:27;8.10;98.50
20398;DHT22;10358;49.590;11.030;2024-03-07T15:41:02;8.10;98.70
20398;DHT22;10358;49.590;11.030;2024-03-07T15:43:28;8.10;98.50
20398;DHT22;10358;49.590;11.030;2024-03-07T15:45:54;8.10;98.90
20398;DHT22;10358;49.590;11.030;2024-03-07T15:48:22;8.00;98.90
20398;DHT22;10358;49.590;11.030;2024-03-07T15:50:50;8.00;99.00
20398;DHT22;10358;49.590;11.030;2024-03-07T15:53:17;8.00;99.20
20398;DHT22;10358;49.590;11.030;2024-03-07T15:55:43;8.00;99.20
20398;DHT22;10358;49.590;11.030;2024-03-07T15:58:09;7.90;98.60
20398;DHT22;10358;49.590;11.030;2024-03-07T16:00:36;7.90;99.10
20398;DHT22;10358;49.590;11.030;2024-03-07T16:03:06;7.90;99.20
20398;DHT22;10358;49.590;11.030;2024-03-07T16:05:34;7.90;98.70
20398;DHT22;10358;49.590;11.030;2024-03-07T16:08:01;7.80;98.80
20398;DHT22;10358;49.590;11.030;2024-03-07T16:10:29;7.80;99.10
20398;DHT22;10358;49.590;11.030;2024-03-07T16:12:56;7.80;99.50
20398;DHT22;10358;49.590;11.030;2024-03-07T16:15:23;7.80;99.60